Time;durP1;ratioP1;P1;durP2;ratioP2;P2;SDS_P1;SDS_P2;PMS_P1;PMS_P2;Temp;Humidity;BMP_temperature;BMP_pressure;BME280_temperature;BME280_humidity;BME280_pressure;Samples;Min_cycle;Max_cycle;Signal;HPM_P1;HPM_P2
2023/12/01 00:00:08;;;;;;;;;;;;;;;11.16;52.43;99357.28;4981268;27;98396;-66
2023/12/01 00:02:34;;;;;;;;;;;;;;;11.16;52.22;99354.59;4964768;27;124567;-70
2023/12/01 00:05:00;;;;;;;;;;;;;;;11.15;52.54;99356.50;4975112;27;99429;-70
2023/12/01 00:07:26;;;;;;;;;;;;;;;11.15;52.47;99353.81;4975975;27;98898;-66
2023/12/01 00:09:53;;;;;;;;;;;;;;;11.14;52.27;99346.03;4958221;27;98079;-65
2023/12/01 00:12:19;;;;;;;;;;;;;;;11.14;52.58;99346.81;4981621;27;98753;-70
2023/12/01 00:14:45;;;;;;;;;;;;;;;11.15;52.44;99350.31;4960042;27;98365;-65
2023/12/01 00:17:11;;;;;;;;;;;;;;;11.13;52.49;99345.22;4981002;27;98675;-70
2023/12/01 00:19:37;;;;;;;;;;;;;;;11.13;52.50;99349.81;4982306;27;103181;-70
2023/12/01 00:22:03;;;;;;;;;;;;;;;11.14;52.32;99351.41;4947406;27;99031;-72
2023/12/01 00:24:29;;;;;;;;;;;;;;;11.13;52.53;99347.91;4961576;27;98243;-71
2023/12/01 00:26:55;;;;;;;;;;;;;;;11.12;52.31;99340.94;4968745;27;98960;-72
2023/12/01 00:29:21;;;;;;;;;;;;;;;11.13;52.50;99349.81;4959336;27;110266;-66
2023/12/01 00:31:47;;;;;;;;;;;;;;;11.12;52.50;99350.91;4963853;27;127946;-70
2023/12/01 00:34:13;;;;;;;;;;;;;;;11.12;52.52;99359.81;4978841;27;126833;-71
2023/12/01 00:36:39;;;;;;;;;;;;;;;11.11;52.54;99358.19;4977075;27;118677;-66
2023/12/01 00:39:06;;;;;;;;;;;;;;;11.11;52.49;99363.59;4965779;27;101917;-70
2023/12/01 00:41:32;;;;;;;;;;;;;;;11.12;52.56;99367.91;4976306;27;98589;-65
2023/12/01 00:43:58;;;;;;;;;;;;;;;11.12;52.53;99361.69;4972760;27;99092;-66
2023/12/01 00:46:25;;;;;;;;;;;;;;;11.11;52.34;99365.50;4971885;27;98522;-70
2023/12/01 00:48:50;;;;;;;;;;;;;;;11.11;52.50;99377.06;4969773;27;99316;-66
2023/12/01 00:51:20;;;;;;;;;;;;;;;11.11;52.59;99377.06;4977565;27;116926;-70
2023/12/01 00:53:48;;;;;;;;;;;;;;;11.11;52.32;99381.66;4976707;27;98314;-71
2023/12/01 00:56:14;;;;;;;;;;;;;;;11.10;52.60;99377.38;4974451;27;124088;-71
2023/12/01 00:58:40;;;;;;;;;;;;;;;11.10;52.43;99386.25;4970584;27;98987;-71
2023/12/01 01:01:06;;;;;;;;;;;;;;;11.09;52.49;99386.56;4972529;27;123546;-71
2023/12/01 01:03:36;;;;;;;;;;;;;;;11.09;52.27;99398.16;4988340;27;98524;-66
2023/12/01 01:06:02;;;;;;;;;;;;;;;11.09;52.49;99392.75;4979979;27;97986;-71
2023/12/01 01:08:31;;;;;;;;;;;;;;;11.11;52.50;99400.56;4976000;27;99624;-71
2023/12/01 01:10:57;;;;;;;;;;;;;;;11.09;52.55;99395.47;4976149;27;98223;-71
2023/12/01 01:13:25;;;;;;;;;;;;;;;11.10;52.52;99405.16;4985848;27;100145;-66
2023/12/01 01:15:51;;;;;;;;;;;;;;;11.10;52.51;99413.25;4987735;27;98353;-66
2023/12/01 01:18:17;;;;;;;;;;;;;;;11.09;52.55;99400.84;4969810;27;129611;-71
2023/12/01 01:20:43;;;;;;;;;;;;;;;11.10;52.35;99401.66;4982388;27;126138;-66
2023/12/01 01:23:09;;;;;;;;;;;;;;;11.09;52.25;99394.66;4998547;27;98373;-70
2023/12/01 01:25:35;;;;;;;;;;;;;;;11.09;52.36;99398.16;4970506;27;112344;-70
2023/12/01 01:28:01;;;;;;;;;;;;;;;11.10;52.42;99398.97;4971115;27;109332;-66
2023/12/01 01:30:27;;;;;;;;;;;;;;;11.09;52.58;99392.75;4966716;27;113347;-70
2023/12/01 01:32:53;;;;;;;;;;;;;;;11.09;52.48;99390.06;4991103;27;126488;-66
2023/12/01 01:35:19;;;;;;;;;;;;;;;11.09;52.40;99384.69;4974676;27;98363;-70
2023/12/01 01:37:45;;;;;;;;;;;;;;;11.09;52.49;99381.97;4962803;27;116209;-70
2023/12/01 01:40:13;;;;;;;;;;;;;;;11.09;52.42;99375.78;4972432;27;99578;-66
2023/12/01 01:42:39;;;;;;;;;;;;;;;11.09;52.33;99381.97;4965882;27;99636;-66
2023/12/01 01:45:05;;;;;;;;;;;;;;;11.09;52.28;99387.38;4985433;27;98090;-66
2023/12/01 01:47:34;;;;;;;;;;;;;;;11.08;52.42;99380.34;5000526;27;98241;-66
2023/12/01 01:50:02;;;;;;;;;;;;;;;11.09;52.26;99375.78;4974294;27;98126;-66
2023/12/01 01:52:28;;;;;;;;;;;;;;;11.09;52.42;99375.78;4995022;27;98203;-70
2023/12/01 01:54:54;;;;;;;;;;;;;;;11.10;52.38;99380.06;4969698;27;107047;-70
2023/12/01 01:57:20;;;;;;;;;;;;;;;11.09;52.43;99379.28;4968894;27;118712;-66
2023/12/01 01:59:47;;;;;;;;;;;;;;;11.09;52.45;99386.56;4987931;27;102829;-70
2023/12/01 02:02:13;;;;;;;;;;;;;;;11.09;52.68;99387.38;4969274;27;99725;-70
2023/12/01 02:04:39;;;;;;;;;;;;;;;11.09;52.56;99383.88;4986527;27;109585;-66
2023/12/01 02:07:08;;;;;;;;;;;;;;;11.09;52.41;99381.97;4968570;27;99494;-71
2023/12/01 02:09:34;;;;;;;;;;;;;;;11.08;52.48;99385.75;4997152;27;98369;-65
2023/12/01 02:12:00;;;;;;;;;;;;;;;11.09;52.32;99389.28;4965609;27;98244;-70
2023/12/01 02:14:26;;;;;;;;;;;;;;;11.09;52.55;99387.38;4968751;27;98025;-70
2023/12/01 02:16:52;;;;;;;;;;;;;;;11.09;52.58;99386.56;4964891;27;98460;-70
2023/12/01 02:19:18;;;;;;;;;;;;;;;11.09;52.36;99391.97;4948301;27;97920;-66
2023/12/01 02:21:48;;;;;;;;;;;;;;;11.08;52.46;99396.53;4951225;27;100174;-70
2023/12/01 02:24:17;;;;;;;;;;;;;;;11.08;52.20;99399.22;4952165;27;98086;-70
2023/12/01 02:26:42;;;;;;;;;;;;;;;11.09;52.42;99392.75;4946692;27;97991;-66
2023/12/01 02:29:08;;;;;;;;;;;;;;;11.10;52.35;99396.25;4951896;27;126216;-66
2023/12/01 02:31:35;;;;;;;;;;;;;;;11.08;52.41;99383.06;4968675;27;98474;-70
2023/12/01 02:34:01;;;;;;;;;;;;;;;11.09;52.53;99390.06;4953899;27;99822;-65
2023/12/01 02:36:27;;;;;;;;;;;;;;;11.09;52.48;99387.38;4951083;27;99668;-70
2023/12/01 02:38:53;;;;;;;;;;;;;;;11.09;52.50;99379.28;4952624;27;129638;-70
2023/12/01 02:41:19;;;;;;;;;;;;;;;11.09;52.48;99376.59;4961839;27;99067;-65
2023/12/01 02:43:45;;;;;;;;;;;;;;;11.09;52.29;99381.97;4954106;27;97929;-65
2023/12/01 02:46:14;;;;;;;;;;;;;;;11.10;52.47;99382.78;4951711;27;104585;-70
2023/12/01 02:48:40;;;;;;;;;;;;;;;11.09;52.49;99376.59;4953147;27;97911;-70
2023/12/01 02:51:07;;;;;;;;;;;;;;;11.09;52.51;99376.59;4972352;27;113912;-70
2023/12/01 02:53:33;;;;;;;;;;;;;;;11.09;52.46;99370.41;4953719;27;100030;-70
2023/12/01 02:56:00;;;;;;;;;;;;;;;11.10;52.41;99370.09;4963443;27;99558;-65
2023/12/01 02:58:26;;;;;;;;;;;;;;;11.10;52.22;99369.28;4942776;27;98478;-65
2023/12/01 03:00:52;;;;;;;;;;;;;;;11.10;52.48;99369.28;4965143;27;100879;-70
2023/12/01 03:03:18;;;;;;;;;;;;;;;11.10;52.19;99374.69;4954300;27;98250;-71
2023/12/01 03:05:44;;;;;;;;;;;;;;;11.09;52.29;99370.41;4962022;27;128070;-66
2023/12/01 03:08:10;;;;;;;;;;;;;;;11.09;52.49;99373.88;4943995;27;98554;-66
2023/12/01 03:10:36;;;;;;;;;;;;;;;11.10;52.33;99372.78;4945035;27;97850;-66
2023/12/01 03:13:02;;;;;;;;;;;;;;;11.09;52.39;99381.97;4946695;27;110914;-66
2023/12/01 03:15:29;;;;;;;;;;;;;;;11.10;52.46;99385.47;4981075;27;128064;-70
2023/12/01 03:17:58;;;;;;;;;;;;;;;11.07;52.45;99382.25;4964606;27;98226;-65
2023/12/01 03:20:27;;;;;;;;;;;;;;;11.10;52.40;99390.88;4966746;27;98627;-70
2023/12/01 03:22:53;;;;;;;;;;;;;;;11.09;52.33;99395.47;4963970;28;98076;-70
2023/12/01 03:25:19;;;;;;;;;;;;;;;11.10;52.46;99404.34;4968317;27;98107;-70
2023/12/01 03:27:46;;;;;;;;;;;;;;;11.09;52.38;99406.25;4980206;27;99460;-66
2023/12/01 03:30:16;;;;;;;;;;;;;;;11.10;52.27;99404.34;4962334;27;98313;-66
2023/12/01 03:32:50;;;;;;;;;;;;;;;11.09;52.43;99400.06;4966287;27;98155;-66
2023/12/01 03:35:24;;;;;;;;;;;;;;;11.10;52.41;99407.03;4967611;27;98430;-70
2023/12/01 03:37:52;;;;;;;;;;;;;;;11.10;52.50;99398.97;4948728;28;97961;-70
2023/12/01 03:40:18;;;;;;;;;;;;;;;11.10;52.49;99404.34;4955273;27;98810;-70
2023/12/01 03:42:47;;;;;;;;;;;;;;;11.09;52.42;99405.44;4985250;27;112068;-70
2023/12/01 03:45:14;;;;;;;;;;;;;;;11.09;52.41;99400.06;4944056;27;98571;-70
2023/12/01 03:47:41;;;;;;;;;;;;;;;11.10;52.39;99396.25;4968847;27;97976;-66
2023/12/01 03:50:11;;;;;;;;;;;;;;;11.10;52.44;99401.66;4943687;27;98147;-66
2023/12/01 03:52:41;;;;;;;;;;;;;;;11.10;52.43;99401.66;4967924;27;98220;-71
2023/12/01 03:55:07;;;;;;;;;;;;;;;11.07;52.45;99393.03;4952687;27;98411;-66
2023/12/01 03:57:33;;;;;;;;;;;;;;;11.08;52.11;99393.84;4946242;27;98199;-66
2023/12/01 03:59:59;;;;;;;;;;;;;;;11.09;52.28;99400.06;4950330;27;129555;-66
2023/12/01 04:02:25;;;;;;;;;;;;;;;11.10;52.39;99404.34;4959951;27;98005;-66
2023/12/01 04:04:52;;;;;;;;;;;;;;;11.09;52.40;99400.06;4968334;27;98161;-66
2023/12/01 04:07:18;;;;;;;;;;;;;;;11.10;52.44;99394.34;4977361;27;98111;-66
2023/12/01 04:09:44;;;;;;;;;;;;;;;11.09;52.47;99392.75;4949542;27;97933;-66
2023/12/01 04:12:10;;;;;;;;;;;;;;;11.10;52.38;99388.97;4954372;27;112571;-71
2023/12/01 04:14:36;;;;;;;;;;;;;;;11.09;52.48;99390.06;4985431;27;101784;-71
2023/12/01 04:17:08;;;;;;;;;;;;;;;11.08;52.50;99391.16;4972358;27;128556;-70
2023/12/01 04:19:38;;;;;;;;;;;;;;;11.09;52.38;99406.25;4978236;27;98337;-70
2023/12/01 04:22:05;;;;;;;;;;;;;;;11.08;52.38;99401.94;4976353;27;98835;-66
2023/12/01 04:24:34;;;;;;;;;;;;;;;11.09;52.57;99408.94;4979616;27;98791;-66
2023/12/01 04:27:04;;;;;;;;;;;;;;;11.09;52.16;99406.25;4991820;27;98776;-70
2023/12/01 04:29:30;;;;;;;;;;;;;;;11.09;52.34;99417.03;4973192;27;98058;-70
2023/12/01 04:31:57;;;;;;;;;;;;;;;11.08;52.35;99418.13;4970437;27;98112;-66
2023/12/01 04:34:26;;;;;;;;;;;;;;;11.09;52.28;99422.44;4978170;27;103793;-70
2023/12/01 04:36:52;;;;;;;;;;;;;;;11.08;52.38;99420.81;4976784;27;99431;-66
2023/12/01 04:39:18;;;;;;;;;;;;;;;11.09;52.42;99427.81;4971761;27;122903;-70
2023/12/01 04:41:44;;;;;;;;;;;;;;;11.07;52.41;99420.00;4988383;27;111529;-71
2023/12/01 04:44:10;;;;;;;;;;;;;;;11.09;52.27;99424.34;4965708;27;105599;-66
2023/12/01 04:46:38;;;;;;;;;;;;;;;11.08;52.41;99426.19;4975449;27;99590;-71
2023/12/01 04:49:08;;;;;;;;;;;;;;;11.07;52.42;99425.41;4970962;27;98057;-66
2023/12/01 04:51:37;;;;;;;;;;;;;;;11.08;52.57;99426.19;4971547;27;98071;-70
2023/12/01 04:54:07;;;;;;;;;;;;;;;11.08;52.42;99431.59;4983405;27;99333;-70
2023/12/01 04:56:33;;;;;;;;;;;;;;;11.07;52.45;99428.09;4972248;27;99462;-66
2023/12/01 04:59:00;;;;;;;;;;;;;;;11.07;52.38;99425.41;4978484;27;97928;-71
2023/12/01 05:01:26;;;;;;;;;;;;;;;11.06;52.37;99421.13;4970902;27;103290;-65
2023/12/01 05:03:52;;;;;;;;;;;;;;;11.06;52.31;99421.13;4986352;27;99221;-71
2023/12/01 05:06:18;;;;;;;;;;;;;;;11.06;52.45;99421.13;4977148;27;98483;-70
2023/12/01 05:08:44;;;;;;;;;;;;;;;11.06;52.37;99431.09;4974112;27;98067;-67
2023/12/01 05:11:11;;;;;;;;;;;;;;;11.07;52.43;99427.31;4972007;27;98443;-67
2023/12/01 05:13:37;;;;;;;;;;;;;;;11.07;52.45;99430.00;4975468;27;97924;-67
2023/12/01 05:16:04;;;;;;;;;;;;;;;11.05;52.32;99422.22;4992694;27;98617;-71
2023/12/01 05:18:30;;;;;;;;;;;;;;;11.07;52.33;99427.31;4992693;27;101607;-70
2023/12/01 05:20:56;;;;;;;;;;;;;;;11.07;52.44;99430.00;4967362;27;120373;-65
2023/12/01 05:23:22;;;;;;;;;;;;;;;11.07;52.10;99419.22;4961411;27;98173;-70
2023/12/01 05:25:50;;;;;;;;;;;;;;;11.06;52.45;99429.22;4980650;27;128104;-70
2023/12/01 05:28:16;;;;;;;;;;;;;;;11.07;52.45;99428.09;4984041;27;99230;-70
2023/12/01 05:30:45;;;;;;;;;;;;;;;11.06;52.55;99426.50;4967516;27;121323;-65
2023/12/01 05:33:11;;;;;;;;;;;;;;;11.08;52.45;99434.28;4965790;27;98884;-65
2023/12/01 05:35:38;;;;;;;;;;;;;;;11.08;52.54;99442.38;4987663;27;109111;-65
2023/12/01 05:38:04;;;;;;;;;;;;;;;11.07;52.57;99436.19;4981453;27;98227;-69
2023/12/01 05:40:34;;;;;;;;;;;;;;;11.07;52.78;99433.50;4988203;27;97889;-65
2023/12/01 05:43:00;;;;;;;;;;;;;;;11.08;52.37;99439.69;4980368;27;98448;-65
2023/12/01 05:45:27;;;;;;;;;;;;;;;11.07;52.33;99435.41;4985225;27;98284;-70
2023/12/01 05:47:54;;;;;;;;;;;;;;;11.07;52.46;99430.81;4968016;27;99851;-65
2023/12/01 05:50:27;;;;;;;;;;;;;;;11.09;52.38;99427.03;4963944;27;98275;-65
2023/12/01 05:52:54;;;;;;;;;;;;;;;11.09;52.48;99430.53;4963691;27;102552;-70
2023/12/01 05:55:24;;;;;;;;;;;;;;;11.09;52.42;99435.91;4973058;27;98418;-65
2023/12/01 05:58:10;;;;;;;;;;;;;;;11.10;52.41;99439.41;4982858;27;99654;-65
2023/12/01 06:00:36;;;;;;;;;;;;;;;11.09;52.41;99444.00;4990289;27;98625;-70
2023/12/01 06:03:07;;;;;;;;;;;;;;;11.09;52.42;99443.22;4968177;27;98115;-70
2023/12/01 06:05:34;;;;;;;;;;;;;;;11.09;52.38;99451.31;4977776;27;98059;-70
2023/12/01 06:08:00;;;;;;;;;;;;;;;11.09;52.40;99446.69;4962098;27;98000;-65
2023/12/01 06:10:27;;;;;;;;;;;;;;;11.10;52.58;99442.09;4991571;27;98170;-66
2023/12/01 06:12:53;;;;;;;;;;;;;;;11.09;52.23;99441.31;4999808;27;98101;-70
2023/12/01 06:15:19;;;;;;;;;;;;;;;11.09;52.50;99438.63;4988996;27;121695;-66
2023/12/01 06:17:51;;;;;;;;;;;;;;;11.08;52.12;99439.69;4968273;27;99694;-66
2023/12/01 06:20:20;;;;;;;;;;;;;;;11.08;52.51;99447.78;4991436;27;108066;-70
2023/12/01 06:22:47;;;;;;;;;;;;;;;11.07;52.48;99444.28;4963791;27;113282;-65
2023/12/01 06:25:16;;;;;;;;;;;;;;;11.06;52.33;99445.38;4982704;27;100838;-70
2023/12/01 06:27:43;;;;;;;;;;;;;;;11.07;52.37;99448.88;4970225;27;124800;-65
2023/12/01 06:30:12;;;;;;;;;;;;;;;11.06;52.35;99449.97;4962692;27;98011;-70
2023/12/01 06:32:40;;;;;;;;;;;;;;;11.05;52.32;99440.31;4990197;27;98826;-70
2023/12/01 06:35:11;;;;;;;;;;;;;;;11.05;52.46;99448.38;4986785;27;98363;-70
2023/12/01 06:37:38;;;;;;;;;;;;;;;11.03;52.27;99451.38;4967190;27;98099;-70
2023/12/01 06:40:11;;;;;;;;;;;;;;;11.02;52.33;99459.75;4965949;27;97919;-65
2023/12/01 06:42:41;;;;;;;;;;;;;;;11.02;52.14;99460.56;4963817;27;99537;-65
2023/12/01 06:45:08;;;;;;;;;;;;;;;11.01;52.41;99458.97;4981227;27;98663;-65
2023/12/01 06:47:34;;;;;;;;;;;;;;;11.01;52.43;99472.44;4968869;27;98572;-70
2023/12/01 06:50:00;;;;;;;;;;;;;;;11.01;52.45;99468.94;4988582;27;97980;-70
2023/12/01 06:52:28;;;;;;;;;;;;;;;10.99;52.37;99477.31;4969086;27;99624;-70
2023/12/01 06:54:54;;;;;;;;;;;;;;;10.99;52.40;99469.22;4983480;27;98047;-70
2023/12/01 06:57:20;;;;;;;;;;;;;;;11.00;52.44;99475.41;4970064;27;108019;-66
2023/12/01 06:59:47;;;;;;;;;;;;;;;10.99;52.43;99473.81;4968216;27;122071;-70
2023/12/01 07:02:17;;;;;;;;;;;;;;;10.99;52.37;99479.22;4971804;27;98137;-70
2023/12/01 07:04:44;;;;;;;;;;;;;;;10.99;52.55;99488.09;4958146;27;99451;-66
2023/12/01 07:07:12;;;;;;;;;;;;;;;10.99;52.33;99490.00;4965848;27;98251;-65
2023/12/01 07:09:43;;;;;;;;;;;;;;;11.00;52.43;99497.00;4978633;27;97989;-65
2023/12/01 07:12:10;;;;;;;;;;;;;;;10.99;52.39;99493.50;4977387;27;122855;-65
2023/12/01 07:14:36;;;;;;;;;;;;;;;10.98;52.32;99508.09;4969251;27;99296;-69
2023/12/01 07:17:05;;;;;;;;;;;;;;;10.97;52.07;99508.38;4968780;27;98421;-69
2023/12/01 07:19:32;;;;;;;;;;;;;;;10.95;52.28;99518.66;4972115;27;98015;-65
2023/12/01 07:21:59;;;;;;;;;;;;;;;10.94;52.07;99514.34;4973199;27;99537;-65
2023/12/01 07:24:25;;;;;;;;;;;;;;;10.92;52.25;99506.53;4968917;27;98179;-70
2023/12/01 07:26:52;;;;;;;;;;;;;;;10.91;52.09;99507.63;4973391;27;111625;-69
2023/12/01 07:29:18;;;;;;;;;;;;;;;10.90;52.26;99524.91;4967667;27;98140;-65
2023/12/01 07:31:44;;;;;;;;;;;;;;;10.89;52.41;99512.53;4986244;27;98153;-70
2023/12/01 07:34:14;;;;;;;;;;;;;;;10.88;52.40;99532.47;4962108;27;104288;-65
2023/12/01 07:36:40;;;;;;;;;;;;;;;10.89;52.48;99533.31;4974318;27;98151;-66
2023/12/01 07:39:07;;;;;;;;;;;;;;;10.89;52.35;99533.31;4969020;27;101094;-65
2023/12/01 07:41:33;;;;;;;;;;;;;;;10.90;52.11;99537.59;4995809;27;98087;-69
2023/12/01 07:43:59;;;;;;;;;;;;;;;10.90;52.33;99537.59;4988911;27;124784;-70
2023/12/01 07:46:25;;;;;;;;;;;;;;;10.91;52.21;99539.19;4973247;27;126424;-65
2023/12/01 07:48:51;;;;;;;;;;;;;;;10.91;52.29;99539.19;4995945;27;105594;-65
2023/12/01 07:51:17;;;;;;;;;;;;;;;10.91;52.18;99545.38;4971567;27;98065;-65
2023/12/01 07:53:46;;;;;;;;;;;;;;;10.92;52.26;99546.97;4967074;27;98519;-65
2023/12/01 07:56:22;;;;;;;;;;;;;;;10.93;52.24;99554.00;4965492;27;103819;-65
2023/12/01 07:58:49;;;;;;;;;;;;;;;10.94;52.15;99549.41;4999482;27;98326;-70
2023/12/01 08:01:15;;;;;;;;;;;;;;;10.95;52.28;99556.41;4973237;27;98750;-69
2023/12/01 08:03:43;;;;;;;;;;;;;;;10.96;52.19;99550.69;4967091;27;98115;-69
2023/12/01 08:06:10;;;;;;;;;;;;;;;10.97;52.22;99552.31;4976944;27;99295;-70
2023/12/01 08:08:36;;;;;;;;;;;;;;;10.99;52.18;99558.22;4981015;27;105400;-70
2023/12/01 08:11:04;;;;;;;;;;;;;;;11.00;52.16;99564.41;4972409;27;117485;-69
2023/12/01 08:13:30;;;;;;;;;;;;;;;11.01;52.09;99564.13;4969207;27;97967;-65
2023/12/01 08:15:56;;;;;;;;;;;;;;;11.02;52.03;99560.34;4987340;27;97922;-65
2023/12/01 08:18:22;;;;;;;;;;;;;;;11.03;52.25;99564.63;4968472;27;123760;-65
2023/12/01 08:20:49;;;;;;;;;;;;;;;11.03;52.15;99561.94;4965633;27;120354;-65
2023/12/01 08:23:15;;;;;;;;;;;;;;;11.05;52.06;99570.53;4975472;27;98007;-65
2023/12/01 08:25:44;;;;;;;;;;;;;;;11.05;52.12;99577.84;4995031;27;115317;-69
2023/12/01 08:28:10;;;;;;;;;;;;;;;11.06;52.27;99582.13;4969742;27;98115;-65
2023/12/01 08:30:39;;;;;;;;;;;;;;;11.06;52.19;99598.31;4972508;27;100276;-70
2023/12/01 08:33:05;;;;;;;;;;;;;;;11.06;52.18;99585.63;4962462;27;97901;-69
2023/12/01 08:35:31;;;;;;;;;;;;;;;11.06;51.99;99582.13;4988624;27;98579;-65
2023/12/01 08:37:57;;;;;;;;;;;;;;;11.06;52.06;99587.53;4976609;27;99833;-65
2023/12/01 08:40:23;;;;;;;;;;;;;;;11.07;52.10;99592.63;4970551;27;99930;-70
2023/12/01 08:42:52;;;;;;;;;;;;;;;11.07;52.22;99597.22;4979376;27;99343;-66
2023/12/01 08:45:19;;;;;;;;;;;;;;;11.08;52.14;99593.41;5001058;27;98174;-70
2023/12/01 08:47:44;;;;;;;;;;;;;;;11.09;52.19;99594.25;4968880;27;98431;-70
2023/12/01 08:50:11;;;;;;;;;;;;;;;11.10;52.24;99593.13;4979157;27;127333;-65
2023/12/01 08:52:38;;;;;;;;;;;;;;;11.09;51.99;99603.13;4982933;27;98581;-69
2023/12/01 08:55:05;;;;;;;;;;;;;;;11.09;52.26;99618.50;4967450;27;98534;-65
2023/12/01 08:57:31;;;;;;;;;;;;;;;11.10;52.04;99614.72;4965892;27;98300;-68
2023/12/01 08:59:57;;;;;;;;;;;;;;;11.09;52.25;99622.00;4983978;27;113259;-69
2023/12/01 09:02:23;;;;;;;;;;;;;;;11.10;52.15;99625.50;4977195;27;127210;-65
2023/12/01 09:04:49;;;;;;;;;;;;;;;11.10;52.12;99626.31;4971923;27;104154;-65
2023/12/01 09:07:15;;;;;;;;;;;;;;;11.11;51.98;99633.28;4984271;27;98128;-69
2023/12/01 09:09:41;;;;;;;;;;;;;;;11.11;52.24;99632.50;4971363;27;99953;-65
2023/12/01 09:12:07;;;;;;;;;;;;;;;11.11;52.28;99624.41;4981726;27;127397;-69
2023/12/01 09:14:33;;;;;;;;;;;;;;;11.10;52.23;99623.59;4967909;27;98968;-69
2023/12/01 09:16:59;;;;;;;;;;;;;;;11.12;52.22;99634.09;4968098;27;99572;-65
2023/12/01 09:19:25;;;;;;;;;;;;;;;11.13;52.10;99636.53;4971631;27;98121;-65
2023/12/01 09:21:51;;;;;;;;;;;;;;;11.15;52.05;99633.53;4958450;27;98188;-66
2023/12/01 09:24:17;;;;;;;;;;;;;;;11.17;52.02;99632.16;4966652;27;98192;-66
2023/12/01 09:26:43;;;;;;;;;;;;;;;11.18;52.04;99625.66;4970800;27;102578;-66
2023/12/01 09:29:09;;;;;;;;;;;;;;;11.20;52.08;99630.75;4985129;27;98360;-66
2023/12/01 09:31:46;;;;;;;;;;;;;;;11.22;52.01;99637.47;4967246;27;98669;-66
2023/12/01 09:34:12;;;;;;;;;;;;;;;11.29;51.70;99629.00;4967969;27;98783;-66
2023/12/01 09:36:39;;;;;;;;;;;;;;;11.30;52.08;99622.50;4983581;27;98167;-66
2023/12/01 09:39:05;;;;;;;;;;;;;;;11.38;51.99;99621.06;4979762;27;106327;-66
2023/12/01 09:41:34;;;;;;;;;;;;;;;11.45;51.99;99606.09;4981344;27;98511;-70
2023/12/01 09:44:00;;;;;;;;;;;;;;;11.54;51.97;99617.03;4983888;27;99896;-66
2023/12/01 09:46:34;;;;;;;;;;;;;;;11.62;51.89;99612.84;4963882;27;100917;-70
2023/12/01 09:49:00;;;;;;;;;;;;;;;11.67;51.80;99610.06;4974649;27;98118;-70
2023/12/01 09:51:26;;;;;;;;;;;;;;;11.67;51.76;99610.91;4999551;27;100008;-70
2023/12/01 09:53:52;;;;;;;;;;;;;;;11.69;51.86;99614.09;4966450;27;99585;-66
2023/12/01 09:56:19;;;;;;;;;;;;;;;11.67;51.94;99608.19;4986546;27;117409;-70
2023/12/01 09:58:45;;;;;;;;;;;;;;;11.63;51.96;99612.59;4968972;28;98026;-66
2023/12/01 10:01:13;;;;;;;;;;;;;;;11.61;51.99;99611.25;4959497;27;129322;-71
2023/12/01 10:03:39;;;;;;;;;;;;;;;11.60;51.97;99618.56;4966847;27;98368;-70
2023/12/01 10:06:07;;;;;;;;;;;;;;;11.62;52.16;99616.34;4950426;28;98124;-65
2023/12/01 10:08:34;;;;;;;;;;;;;;;11.67;52.18;99619.00;4941728;27;98312;-66
2023/12/01 10:11:00;;;;;;;;;;;;;;;11.73;52.05;99617.78;4966709;27;99337;-70
2023/12/01 10:13:39;;;;;;;;;;;;;;;11.81;51.93;99616.31;4979007;27;119431;-65
2023/12/01 10:16:05;;;;;;;;;;;;;;;11.87;51.96;99619.75;4975439;27;98683;-65
2023/12/01 10:18:31;;;;;;;;;;;;;;;11.93;52.07;99613.19;4976937;28;116195;-65
2023/12/01 10:21:07;;;;;;;;;;;;;;;11.98;51.79;99619.28;4955809;28;98054;-65
2023/12/01 10:23:33;;;;;;;;;;;;;;;11.99;52.19;99626.31;4945801;28;99669;-65
2023/12/01 10:26:02;;;;;;;;;;;;;;;12.01;51.97;99624.09;4981317;28;98201;-69
2023/12/01 10:28:39;;;;;;;;;;;;;;;12.04;51.90;99626.22;4961495;28;98128;-65
2023/12/01 10:31:06;;;;;;;;;;;;;;;12.02;52.25;99620.31;4948458;28;99051;-65
2023/12/01 10:33:35;;;;;;;;;;;;;;;12.02;52.15;99623.03;4969098;27;98409;-65
2023/12/01 10:36:04;;;;;;;;;;;;;;;12.01;52.06;99624.09;4969402;27;99488;-65
2023/12/01 10:38:31;;;;;;;;;;;;;;;11.98;52.26;99623.88;4985833;27;100048;-70
2023/12/01 10:40:57;;;;;;;;;;;;;;;11.96;52.10;99621.50;4946259;27;105139;-70
2023/12/01 10:43:23;;;;;;;;;;;;;;;11.94;52.17;99617.47;4963161;27;99409;-70
2023/12/01 10:45:49;;;;;;;;;;;;;;;11.94;52.22;99620.19;4968715;27;97950;-70
2023/12/01 10:48:17;;;;;;;;;;;;;;;11.94;52.29;99620.97;4968113;27;98733;-65
2023/12/01 10:50:43;;;;;;;;;;;;;;;11.95;52.12;99627.22;4962184;27;110238;-65
2023/12/01 10:53:10;;;;;;;;;;;;;;;11.93;52.31;99632.88;4974728;27;98150;-67
2023/12/01 10:55:36;;;;;;;;;;;;;;;11.96;52.35;99629.59;4966264;27;98639;-70
2023/12/01 10:58:06;;;;;;;;;;;;;;;11.98;52.09;99627.38;4963010;27;99697;-70
2023/12/01 11:00:32;;;;;;;;;;;;;;;11.98;52.14;99626.59;4967782;27;98153;-70
2023/12/01 11:03:04;;;;;;;;;;;;;;;12.01;52.47;99629.50;4944494;27;129702;-65
2023/12/01 11:05:31;;;;;;;;;;;;;;;12.09;52.16;99617.22;4949039;27;97879;-65
2023/12/01 11:08:15;;;;;;;;;;;;;;;12.17;51.63;99621.13;4961647;27;100351;-65
2023/12/01 11:10:56;;;;;;;;;;;;;;;12.18;51.94;99620.03;4969555;27;98428;-70
2023/12/01 11:13:28;;;;;;;;;;;;;;;12.17;52.11;99632.75;4971688;27;103066;-70
2023/12/01 11:15:54;;;;;;;;;;;;;;;12.18;51.98;99630.84;4995014;27;99225;-70
2023/12/01 11:18:21;;;;;;;;;;;;;;;12.18;51.90;99628.13;4962170;27;102576;-65
2023/12/01 11:20:48;;;;;;;;;;;;;;;12.17;51.80;99637.34;4982788;27;98700;-70
2023/12/01 11:23:18;;;;;;;;;;;;;;;12.15;52.26;99642.25;4973947;27;113431;-70
2023/12/01 11:25:50;;;;;;;;;;;;;;;12.14;52.24;99646.03;4998845;27;98125;-70
2023/12/01 11:28:20;;;;;;;;;;;;;;;12.12;52.00;99651.75;4984980;27;99339;-70
2023/12/01 11:33:52;;;;;;;;;;;;;;;12.04;52.13;99645.13;4991798;27;98379;-70
2023/12/01 11:36:27;;;;;;;;;;;;;;;12.04;52.19;99641.63;4976122;27;99668;-70
2023/12/01 11:39:16;;;;;;;;;;;;;;;12.07;52.05;99637.53;5008576;27;99035;-70
2023/12/01 11:41:42;;;;;;;;;;;;;;;12.04;52.22;99637.03;5010652;27;98173;-70
2023/12/01 11:44:29;;;;;;;;;;;;;;;12.04;51.85;99634.31;5012678;27;98595;-70
2023/12/01 11:46:59;;;;;;;;;;;;;;;12.04;52.01;99634.31;4996380;27;99585;-70
2023/12/01 11:49:38;;;;;;;;;;;;;;;12.06;51.96;99635.91;5000276;27;103943;-70
2023/12/01 11:52:05;;;;;;;;;;;;;;;12.06;52.22;99633.22;4960392;27;99960;-66
2023/12/01 11:54:35;;;;;;;;;;;;;;;12.07;52.22;99634.84;4976918;27;99289;-65
2023/12/01 11:57:02;;;;;;;;;;;;;;;12.07;52.02;99630.22;4968236;27;98232;-70
2023/12/01 11:59:28;;;;;;;;;;;;;;;12.09;52.05;99636.13;4979031;27;98390;-69
2023/12/01 12:01:56;;;;;;;;;;;;;;;12.11;51.97;99625.03;4969151;27;127126;-65
2023/12/01 12:04:25;;;;;;;;;;;;;;;12.13;52.03;99625.53;4986324;27;98408;-66
2023/12/01 12:06:51;;;;;;;;;;;;;;;12.15;52.12;99631.44;4982593;27;98501;-65
2023/12/01 12:09:17;;;;;;;;;;;;;;;12.16;51.93;99627.63;4974116;27;98084;-70
2023/12/01 12:11:52;;;;;;;;;;;;;;;12.21;51.80;99627.53;4970670;27;98111;-66
2023/12/01 12:14:26;;;;;;;;;;;;;;;12.21;51.95;99635.66;4983517;27;98464;-71
2023/12/01 12:16:53;;;;;;;;;;;;;;;12.25;51.93;99639.34;4974063;27;98389;-70
2023/12/01 12:19:19;;;;;;;;;;;;;;;12.23;51.67;99634.25;4975339;27;98379;-70
2023/12/01 12:21:45;;;;;;;;;;;;;;;12.20;51.97;99639.47;4968195;27;98840;-70
2023/12/01 12:24:11;;;;;;;;;;;;;;;12.21;52.07;99639.16;4970140;27;119163;-66
2023/12/01 12:26:37;;;;;;;;;;;;;;;12.24;52.21;99630.44;4989573;27;98222;-66
2023/12/01 12:29:05;;;;;;;;;;;;;;;12.22;52.00;99629.13;4965934;27;125434;-66
2023/12/01 12:31:37;;;;;;;;;;;;;;;12.20;52.13;99629.44;4964748;27;100096;-65
2023/12/01 12:34:07;;;;;;;;;;;;;;;12.18;51.97;99625.44;4992969;27;98534;-66
2023/12/01 12:36:40;;;;;;;;;;;;;;;12.16;52.17;99643.84;4976777;27;98056;-70
2023/12/01 12:39:07;;;;;;;;;;;;;;;12.16;52.28;99643.84;4965359;27;99396;-70
2023/12/01 12:41:35;;;;;;;;;;;;;;;12.17;51.92;99640.84;4963331;27;98307;-65
2023/12/01 12:44:05;;;;;;;;;;;;;;;12.15;51.93;99640.34;4978252;27;99275;-70
2023/12/01 12:46:32;;;;;;;;;;;;;;;12.16;52.13;99636.53;4996716;27;99132;-65